createdAt,value
2022-08-22T00:01:28.389Z,100175.96
2022-08-22T00:02:42.775Z,100162.48
2022-08-22T00:02:52.599Z,100144.48
2022-08-22T00:02:59.810Z,100162.48
2022-08-22T00:03:00.025Z,100160.27
2022-08-22T00:04:07.474Z,100180.73
2022-08-22T00:06:44.866Z,100183.87
2022-08-22T00:09:29.040Z,100187.84
2022-08-22T00:12:06.423Z,100190.45
2022-08-22T00:14:40.281Z,100187.09
2022-08-22T00:17:20.413Z,100188.05
2022-08-22T00:19:54.993Z,100186.17
2022-08-22T00:22:28.587Z,100187.66
2022-08-22T00:25:02.062Z,100187.10
2022-08-22T00:27:44.869Z,100185.13
2022-08-22T00:30:15.751Z,100188.35
2022-08-22T00:32:50.355Z,100188.52
2022-08-22T00:35:23.859Z,100191.94
2022-08-22T00:38:02.223Z,100191.90
2022-08-22T00:40:42.886Z,100192.92
2022-08-22T00:43:52.934Z,100195.60
2022-08-22T00:46:33.866Z,100194.17
2022-08-22T00:49:13.673Z,100191.27
2022-08-22T00:52:19.185Z,100192.50
2022-08-22T00:55:10.908Z,100192.84
2022-08-22T00:57:51.711Z,100189.91
2022-08-22T01:00:22.735Z,100194.80
2022-08-22T01:03:28.199Z,100194.55
2022-08-22T01:06:09.619Z,100196.41
2022-08-22T01:09:01.667Z,100196.70
2022-08-22T01:11:45.457Z,100195.91
2022-08-22T01:14:34.800Z,100199.51
2022-08-22T01:17:31.433Z,100200.54
2022-08-22T01:20:37.593Z,100200.67
2022-08-22T01:23:34.689Z,100201.84
2022-08-22T01:26:27.680Z,100202.11
2022-08-22T01:29:36.071Z,100201.34
2022-08-22T01:32:40.770Z,100207.02
2022-08-22T01:35:30.554Z,100211.55
2022-08-22T01:38:35.897Z,100211.79
2022-08-22T01:41:22.173Z,100209.23
2022-08-22T01:44:03.201Z,100211.52
2022-08-22T01:46:39.224Z,100211.02
2022-08-22T01:49:15.309Z,100213.27
2022-08-22T01:51:48.148Z,100216.23
2022-08-22T01:54:26.898Z,100211.39
2022-08-22T01:57:01.070Z,100210.42
2022-08-22T01:59:34.616Z,100209.13
2022-08-22T02:02:45.689Z,100209.20
2022-08-22T02:05:25.828Z,100205.77
2022-08-22T02:08:00.066Z,100204.36
2022-08-22T02:10:45.383Z,100203.14
2022-08-22T02:13:27.450Z,100205.13
2022-08-22T02:16:09.353Z,100208.81
2022-08-22T02:18:55.040Z,100214.48
2022-08-22T02:21:31.893Z,100213.30
2022-08-22T02:24:04.014Z,100206.98
2022-08-22T02:26:50.038Z,100208.11
2022-08-22T02:29:34.296Z,100206.05
2022-08-22T02:32:10.584Z,100205.26
2022-08-22T02:34:56.239Z,100208.21
2022-08-22T02:37:41.246Z,100210.04
2022-08-22T02:40:20.697Z,100214.08
2022-08-22T02:43:00.497Z,100209.96
2022-08-22T02:45:39.628Z,100210.21
2022-08-22T02:48:17.168Z,100211.98
2022-08-22T02:50:51.556Z,100215.97
2022-08-22T02:53:23.666Z,100216.27
2022-08-22T02:55:58.930Z,100221.09
2022-08-22T02:58:37.954Z,100221.23
2022-08-22T03:01:23.823Z,100223.27
2022-08-22T03:04:13.591Z,100225.27
2022-08-22T03:06:45.760Z,100230.21
2022-08-22T03:09:27.578Z,100230.97
2022-08-22T03:12:06.557Z,100231.02
2022-08-22T03:14:43.148Z,100232.17
2022-08-22T03:17:19.216Z,100228.58
2022-08-22T03:19:55.301Z,100230.23
2022-08-22T03:22:29.414Z,100229.95
2022-08-22T03:25:06.881Z,100227.95
2022-08-22T03:27:39.658Z,100229.21
2022-08-22T03:30:13.561Z,100231.02
2022-08-22T03:32:51.777Z,100236.86
2022-08-22T03:35:32.560Z,100239.09
2022-08-22T03:38:14.515Z,100237.56
2022-08-22T03:40:57.131Z,100238.31
2022-08-22T03:44:00.543Z,100236.76
2022-08-22T03:46:48.523Z,100234.58
2022-08-22T03:49:36.549Z,100233.02
2022-08-22T03:52:29.581Z,100236.76
2022-08-22T03:55:21.248Z,100241.33
2022-08-22T03:58:03.444Z,100244.11
2022-08-22T04:01:05.739Z,100252.42
2022-08-22T04:03:57.237Z,100258.85
2022-08-22T04:06:56.312Z,100261.27
2022-08-22T04:09:57.938Z,100261.60
2022-08-22T04:13:14.293Z,100263.64
2022-08-22T04:16:15.352Z,100257.81
2022-08-22T04:19:12.446Z,100261.02
2022-08-22T04:22:07.613Z,100261.13
2022-08-22T04:24:48.372Z,100265.89
2022-08-22T04:27:26.362Z,100263.65
2022-08-22T04:29:56.102Z,100266.09
2022-08-22T04:32:30.596Z,100264.80
2022-08-22T04:35:04.221Z,100265.23
2022-08-22T04:37:37.718Z,100268.26
2022-08-22T04:40:12.250Z,100268.95
2022-08-22T04:42:43.780Z,100274.36
2022-08-22T04:45:16.222Z,100276.52
2022-08-22T04:47:54.289Z,100279.09
2022-08-22T04:50:26.495Z,100283.63
2022-08-22T04:53:05.203Z,100285.72
2022-08-22T04:55:45.653Z,100287.49
2022-08-22T04:58:25.080Z,100284.30
2022-08-22T05:00:59.470Z,100283.83
2022-08-22T05:03:29.803Z,100280.95
2022-08-22T05:06:01.664Z,100279.66
2022-08-22T05:08:32.937Z,100282.20
2022-08-22T05:11:02.986Z,100281.45
2022-08-22T05:13:32.934Z,100286.25
2022-08-22T05:16:05.083Z,100283.57
2022-08-22T05:18:36.866Z,100284.70
2022-08-22T05:21:07.814Z,100283.32
2022-08-22T05:23:39.564Z,100285.44
2022-08-22T05:26:08.902Z,100291.25
2022-08-22T05:28:40.391Z,100291.52
2022-08-22T05:31:12.363Z,100291.98
2022-08-22T05:33:43.739Z,100294.06
2022-08-22T05:36:15.507Z,100300.70
2022-08-22T05:38:47.236Z,100295.53
2022-08-22T05:41:21.394Z,100298.61
2022-08-22T05:43:51.114Z,100300.64
2022-08-22T05:46:27.104Z,100301.95
2022-08-22T05:48:59.329Z,100299.35
2022-08-22T05:51:40.338Z,100296.08
2022-08-22T05:54:12.626Z,100299.63
2022-08-22T05:56:45.916Z,100294.66
2022-08-22T05:59:17.759Z,100294.86
2022-08-22T06:01:54.079Z,100294.59
2022-08-22T06:04:27.442Z,100291.03
2022-08-22T06:06:59.117Z,100292.83
2022-08-22T06:09:35.354Z,100291.88
2022-08-22T06:12:18.127Z,100293.39
2022-08-22T06:14:59.241Z,100296.23
2022-08-22T06:17:33.225Z,100299.77
2022-08-22T06:20:02.507Z,100298.41
2022-08-22T06:22:36.770Z,100295.98
2022-08-22T06:25:10.017Z,100303.28
2022-08-22T06:27:39.619Z,100302.23
2022-08-22T06:30:12.299Z,100296.90
2022-08-22T06:32:59.790Z,100300.88
2022-08-22T06:35:52.654Z,100299.65
2022-08-22T06:38:22.430Z,100305.70
2022-08-22T06:40:53.691Z,100303.92
2022-08-22T06:43:23.851Z,100301.70
2022-08-22T06:45:52.911Z,100299.86
2022-08-22T06:48:23.385Z,100300.09
2022-08-22T06:50:56.585Z,100299.67
2022-08-22T06:53:28.413Z,100300.61
2022-08-22T06:56:02.460Z,100301.62
2022-08-22T06:58:34.483Z,100305.14
2022-08-22T07:01:11.646Z,100303.67
2022-08-22T07:03:45.710Z,100310.74
2022-08-22T07:06:17.349Z,100311.24
2022-08-22T07:08:46.937Z,100310.80
2022-08-22T07:11:21.567Z,100317.33
2022-08-22T07:13:56.675Z,100315.14
2022-08-22T07:16:31.178Z,100308.39
2022-08-22T07:18:59.976Z,100305.05
2022-08-22T07:21:31.114Z,100310.06
2022-08-22T07:24:06.071Z,100309.61
2022-08-22T07:26:41.408Z,100311.84
2022-08-22T07:29:17.883Z,100316.00
2022-08-22T07:31:53.474Z,100316.24
2022-08-22T07:34:33.272Z,100315.40
2022-08-22T07:37:06.180Z,100313.45
2022-08-22T07:39:38.259Z,100316.66
2022-08-22T07:42:12.653Z,100314.71
2022-08-22T07:44:59.843Z,100317.64
2022-08-22T07:47:39.091Z,100320.15
2022-08-22T07:50:08.607Z,100323.66
2022-08-22T07:52:41.580Z,100324.24
2022-08-22T07:55:17.023Z,100327.05
2022-08-22T07:57:48.249Z,100328.91
2022-08-22T08:00:19.824Z,100327.63
2022-08-22T08:02:52.695Z,100329.42
2022-08-22T08:05:24.163Z,100326.98
2022-08-22T08:07:55.109Z,100328.48
2022-08-22T08:10:27.254Z,100326.85
2022-08-22T08:13:02.772Z,100324.45
2022-08-22T08:15:34.468Z,100325.66
2022-08-22T08:18:05.878Z,100324.16
2022-08-22T08:20:35.415Z,100329.36
2022-08-22T08:23:07.700Z,100326.73
2022-08-22T08:25:53.580Z,100326.98
2022-08-22T08:28:33.932Z,100329.52
2022-08-22T08:31:12.207Z,100326.30
2022-08-22T08:33:44.410Z,100330.84
2022-08-22T08:36:29.697Z,100325.80
2022-08-22T08:39:11.965Z,100324.21
2022-08-22T08:41:59.803Z,100323.12
2022-08-22T08:44:46.057Z,100322.27
2022-08-22T08:47:29.423Z,100325.39
2022-08-22T08:50:14.695Z,100325.29
2022-08-22T08:53:00.090Z,100334.29
2022-08-22T08:55:39.847Z,100332.51
2022-08-22T08:58:24.084Z,100331.52
2022-08-22T09:00:57.117Z,100322.64
2022-08-22T09:04:06.405Z,100316.02
2022-08-22T09:07:01.347Z,100317.33
2022-08-22T09:09:44.467Z,100320.64
2022-08-22T09:12:36.119Z,100320.98
2022-08-22T09:15:18.628Z,100321.35
2022-08-22T09:18:14.023Z,100322.42
2022-08-22T09:21:00.993Z,100322.48
2022-08-22T09:23:59.108Z,100325.45
2022-08-22T09:26:32.516Z,100327.08
2022-08-22T09:29:13.536Z,100324.23
2022-08-22T09:31:52.618Z,100324.02
2022-08-22T09:34:28.929Z,100318.10
2022-08-22T09:37:18.969Z,100319.22
2022-08-22T09:39:57.364Z,100318.77
2022-08-22T09:42:31.564Z,100318.83
2022-08-22T09:45:38.027Z,100309.80
2022-08-22T09:48:21.116Z,100314.38
2022-08-22T09:51:08.455Z,100312.95
2022-08-22T09:54:21.953Z,100312.32
2022-08-22T09:57:15.860Z,100310.08
2022-08-22T09:59:58.096Z,100308.16
2022-08-22T10:02:33.949Z,100307.89
2022-08-22T10:05:11.648Z,100307.58
2022-08-22T10:08:07.469Z,100310.23
2022-08-22T10:10:53.979Z,100310.90
2022-08-22T10:13:34.091Z,100310.34
2022-08-22T10:16:14.880Z,100310.84
2022-08-22T10:18:52.782Z,100309.88
2022-08-22T10:21:30.811Z,100309.55
2022-08-22T10:24:02.976Z,100311.42
2022-08-22T10:26:44.873Z,100320.61
2022-08-22T10:29:36.095Z,100322.95
2022-08-22T10:32:14.761Z,100322.27
2022-08-22T10:34:48.535Z,100325.41
2022-08-22T10:37:25.033Z,100322.63
2022-08-22T10:39:59.732Z,100324.77
2022-08-22T10:42:31.255Z,100323.77
2022-08-22T10:45:36.386Z,100324.94
2022-08-22T10:48:25.634Z,100323.88
2022-08-22T10:51:01.648Z,100323.85
2022-08-22T10:53:37.060Z,100325.39
2022-08-22T10:56:10.535Z,100322.88
2022-08-22T10:58:41.879Z,100325.08
2022-08-22T11:01:37.101Z,100330.23
2022-08-22T11:04:12.196Z,100327.17
2022-08-22T11:06:45.844Z,100325.70
2022-08-22T11:09:20.688Z,100324.36
2022-08-22T11:11:56.047Z,100321.05
2022-08-22T11:14:50.431Z,100322.79
2022-08-22T11:17:40.635Z,100326.95
2022-08-22T11:20:19.415Z,100325.47
2022-08-22T11:23:00.143Z,100324.05
2022-08-22T11:25:40.821Z,100323.61
2022-08-22T11:28:40.697Z,100325.42
2022-08-22T11:31:19.311Z,100317.83
2022-08-22T11:34:01.851Z,100319.90
2022-08-22T11:36:36.369Z,100317.67
2022-08-22T11:39:17.935Z,100314.44
2022-08-22T11:41:54.546Z,100315.52
2022-08-22T11:44:27.383Z,100315.98
2022-08-22T11:46:56.992Z,100313.38
2022-08-22T11:49:47.497Z,100317.52
2022-08-22T11:53:07.660Z,100316.61
2022-08-22T11:55:38.661Z,100315.55
2022-08-22T11:58:29.107Z,100316.14
2022-08-22T12:01:01.451Z,100315.80
2022-08-22T12:03:43.638Z,100319.39
2022-08-22T12:06:34.717Z,100320.63
2022-08-22T12:09:15.576Z,100322.93
2022-08-22T12:11:57.827Z,100319.04
2022-08-22T12:14:31.037Z,100318.43
2022-08-22T12:17:51.087Z,100318.54
2022-08-22T12:20:24.235Z,100316.13
2022-08-22T12:23:18.085Z,100318.42
2022-08-22T12:25:58.911Z,100318.00
2022-08-22T12:28:35.010Z,100317.62
2022-08-22T12:31:12.655Z,100318.00
2022-08-22T12:33:53.352Z,100317.83
2022-08-22T12:36:50.646Z,100314.04
2022-08-22T12:39:41.106Z,100316.11
2022-08-22T12:42:24.621Z,100314.55
2022-08-22T12:45:07.777Z,100315.59
2022-08-22T12:47:42.263Z,100310.80
2022-08-22T12:50:21.538Z,100311.38
2022-08-22T12:53:11.961Z,100312.13
2022-08-22T12:56:04.685Z,100311.04
2022-08-22T12:58:51.396Z,100307.90
2022-08-22T13:01:23.309Z,100306.31
2022-08-22T13:04:05.139Z,100310.86
2022-08-22T13:07:06.019Z,100307.86
2022-08-22T13:09:38.020Z,100308.58
2022-08-22T13:12:19.879Z,100309.05
2022-08-22T13:14:54.351Z,100309.14
2022-08-22T13:17:25.365Z,100306.36
2022-08-22T13:20:04.488Z,100305.23
2022-08-22T13:22:36.198Z,100306.33
2022-08-22T13:25:15.574Z,100306.98
2022-08-22T13:27:55.494Z,100307.85
2022-08-22T13:30:31.303Z,100304.44
2022-08-22T13:33:08.735Z,100305.55
2022-08-22T13:35:44.486Z,100304.05
2022-08-22T13:38:26.338Z,100307.46
2022-08-22T13:41:00.799Z,100304.75
2022-08-22T13:43:33.663Z,100302.08
2022-08-22T13:46:04.995Z,100299.60
2022-08-22T13:48:49.655Z,100298.91
2022-08-22T13:51:25.235Z,100300.49
2022-08-22T13:54:01.043Z,100296.46
2022-08-22T13:56:39.016Z,100296.95
2022-08-22T13:59:47.150Z,100293.10
2022-08-22T14:02:15.228Z,100294.74
2022-08-22T14:04:48.558Z,100293.23
2022-08-22T14:07:31.911Z,100287.35
2022-08-22T14:10:05.028Z,100288.05
2022-08-22T14:12:50.313Z,100281.69
2022-08-22T14:15:23.640Z,100281.66
2022-08-22T14:18:00.108Z,100275.48
2022-08-22T14:20:33.702Z,100277.23
2022-08-22T14:23:06.453Z,100276.78
2022-08-22T14:25:38.153Z,100278.61
2022-08-22T14:28:11.068Z,100279.98
2022-08-22T14:30:54.636Z,100278.25
2022-08-22T14:33:32.656Z,100277.52
2022-08-22T14:36:11.270Z,100274.89
2022-08-22T14:38:46.535Z,100279.27
2022-08-22T14:41:22.418Z,100277.30
2022-08-22T14:43:56.458Z,100277.48
2022-08-22T14:46:26.400Z,100272.91
2022-08-22T14:49:29.482Z,100275.98
2022-08-22T14:52:07.469Z,100275.55
2022-08-22T14:54:39.267Z,100274.77
2022-08-22T14:57:20.070Z,100275.44
2022-08-22T14:59:51.612Z,100276.16
2022-08-22T15:02:26.465Z,100275.80
2022-08-22T15:04:56.854Z,100276.17
2022-08-22T15:07:28.304Z,100273.83
2022-08-22T15:10:01.075Z,100272.91
2022-08-22T15:12:34.136Z,100272.35
2022-08-22T15:15:06.587Z,100269.02
2022-08-22T15:17:44.343Z,100262.65
2022-08-22T15:20:27.808Z,100265.81
2022-08-22T15:23:00.930Z,100264.88
2022-08-22T15:25:33.573Z,100270.20
2022-08-22T15:28:06.391Z,100269.02
2022-08-22T15:30:44.405Z,100267.50
2022-08-22T15:33:17.329Z,100266.27
2022-08-22T15:35:49.587Z,100268.81
2022-08-22T15:38:30.157Z,100265.99
2022-08-22T15:41:38.570Z,100261.77
2022-08-22T15:44:15.121Z,100259.73
2022-08-22T15:47:03.251Z,100263.85
2022-08-22T15:49:35.561Z,100264.29
2022-08-22T15:52:14.661Z,100259.43
2022-08-22T15:55:23.049Z,100262.69
2022-08-22T15:58:05.127Z,100265.85
2022-08-22T16:00:43.490Z,100262.48
2022-08-22T16:03:24.243Z,100262.42
2022-08-22T16:05:55.880Z,100257.80
2022-08-22T16:08:28.031Z,100259.86
2022-08-22T16:11:33.017Z,100256.23
2022-08-22T16:14:23.238Z,100255.88
2022-08-22T16:17:03.543Z,100257.57
2022-08-22T16:19:34.755Z,100259.88
2022-08-22T16:22:12.074Z,100266.48
2022-08-22T16:25:02.577Z,100268.26
2022-08-22T16:27:31.268Z,100269.91
2022-08-22T16:30:08.656Z,100271.85
2022-08-22T16:32:37.252Z,100272.26
2022-08-22T16:35:06.570Z,100276.30
2022-08-22T16:37:46.728Z,100275.50
2022-08-22T16:40:21.279Z,100274.69
2022-08-22T16:42:53.204Z,100276.70
2022-08-22T16:45:32.377Z,100274.55
2022-08-22T16:48:15.840Z,100278.71
2022-08-22T16:50:44.787Z,100281.27
2022-08-22T16:53:51.723Z,100279.02
2022-08-22T16:56:26.732Z,100280.44
2022-08-22T16:59:23.027Z,100281.17
2022-08-22T17:02:17.976Z,100277.95
2022-08-22T17:04:49.152Z,100278.77
2022-08-22T17:07:27.410Z,100280.16
2022-08-22T17:10:12.429Z,100288.00
2022-08-22T17:12:49.234Z,100284.88
2022-08-22T17:15:31.604Z,100283.15
2022-08-22T17:18:13.810Z,100287.31
2022-08-22T17:20:47.162Z,100292.88
2022-08-22T17:23:25.116Z,100297.25
2022-08-22T17:26:01.349Z,100301.69
2022-08-22T17:28:37.610Z,100306.86
2022-08-22T17:31:12.890Z,100307.54
2022-08-22T17:34:07.936Z,100305.74
2022-08-22T17:36:50.620Z,100311.35
2022-08-22T17:39:30.081Z,100309.45
2022-08-22T17:42:08.656Z,100312.27
2022-08-22T17:44:44.700Z,100312.30
2022-08-22T17:47:18.069Z,100310.80
2022-08-22T17:49:54.390Z,100316.45
2022-08-22T17:52:25.186Z,100318.37
2022-08-22T17:54:57.989Z,100323.31
2022-08-22T17:57:31.087Z,100327.39
2022-08-22T18:00:01.221Z,100333.23
2022-08-22T18:02:34.046Z,100340.44
2022-08-22T18:05:07.592Z,100341.79
2022-08-22T18:07:46.605Z,100344.99
2022-08-22T18:10:22.223Z,100344.27
2022-08-22T18:12:57.874Z,100347.51
2022-08-22T18:15:30.126Z,100344.36
2022-08-22T18:18:04.037Z,100347.66
2022-08-22T18:20:38.196Z,100349.70
2022-08-22T18:23:35.471Z,100356.05
2022-08-22T18:26:20.117Z,100355.52
2022-08-22T18:28:54.797Z,100358.60
2022-08-22T18:31:38.450Z,100358.64
2022-08-22T18:34:16.049Z,100366.14
2022-08-22T18:36:53.130Z,100371.61
2022-08-22T18:39:29.216Z,100377.29
2022-08-22T18:42:03.510Z,100377.17
2022-08-22T18:44:34.421Z,100375.34
2022-08-22T18:47:12.762Z,100377.98
2022-08-22T18:49:45.531Z,100372.34
2022-08-22T18:52:18.434Z,100368.61
2022-08-22T18:55:26.626Z,100369.02
2022-08-22T18:58:08.641Z,100369.20
2022-08-22T19:00:50.588Z,100372.73
2022-08-22T19:03:43.413Z,100372.14
2022-08-22T19:06:37.881Z,100368.48
2022-08-22T19:09:27.528Z,100365.52
2022-08-22T19:12:04.888Z,100359.32
2022-08-22T19:15:05.341Z,100357.90
2022-08-22T19:17:55.833Z,100356.70
2022-08-22T19:20:46.190Z,100361.95
2022-08-22T19:23:45.056Z,100366.95
2022-08-22T19:26:27.259Z,100363.06
2022-08-22T19:28:58.195Z,100366.86
2022-08-22T19:31:45.034Z,100363.84
2022-08-22T19:34:18.149Z,100359.41
2022-08-22T19:36:46.833Z,100354.41
2022-08-22T19:39:51.073Z,100354.44
2022-08-22T19:42:31.789Z,100356.80
2022-08-22T19:45:08.338Z,100356.41
2022-08-22T19:47:39.082Z,100359.20
2022-08-22T19:50:13.245Z,100358.34
2022-08-22T19:52:57.089Z,100361.68
2022-08-22T19:55:33.054Z,100358.36
2022-08-22T19:58:08.913Z,100362.09
2022-08-22T20:00:52.847Z,100369.90
2022-08-22T20:03:32.046Z,100376.66
2022-08-22T20:06:06.992Z,100370.85
2022-08-22T20:08:53.733Z,100371.69
2022-08-22T20:11:37.131Z,100375.35
2022-08-22T20:14:20.083Z,100373.11
2022-08-22T20:17:07.375Z,100374.59
2022-08-22T20:22:44.296Z,100378.94
2022-08-22T20:25:42.757Z,100377.51
2022-08-22T20:28:10.972Z,100372.41
2022-08-22T20:30:42.911Z,100371.36
2022-08-22T20:33:17.110Z,100367.28
2022-08-22T20:35:51.934Z,100365.13
2022-08-22T20:38:28.595Z,100367.27
2022-08-22T20:41:01.983Z,100363.42
2022-08-22T20:43:35.499Z,100368.02
2022-08-22T20:46:15.151Z,100371.63
2022-08-22T20:48:45.375Z,100372.36
2022-08-22T20:51:16.401Z,100374.09
2022-08-22T20:53:51.174Z,100375.03
2022-08-22T20:56:32.100Z,100375.40
2022-08-22T20:59:02.951Z,100375.34
2022-08-22T21:01:32.147Z,100372.14
2022-08-22T21:04:00.920Z,100369.41
2022-08-22T21:06:33.761Z,100366.61
2022-08-22T21:09:30.928Z,100366.32
2022-08-22T21:11:59.759Z,100367.41
2022-08-22T21:14:33.964Z,100363.35
2022-08-22T21:17:18.284Z,100365.05
2022-08-22T21:19:47.144Z,100367.90
2022-08-22T21:22:17.835Z,100362.67
2022-08-22T21:25:01.065Z,100365.85
2022-08-22T21:27:36.230Z,100364.13
2022-08-22T21:30:12.421Z,100362.27
2022-08-22T21:32:55.062Z,100368.05
2022-08-22T21:35:33.226Z,100370.88
2022-08-22T21:38:03.622Z,100372.27
2022-08-22T21:40:34.524Z,100370.11
2022-08-22T21:43:07.405Z,100365.29
2022-08-22T21:45:43.249Z,100362.16
2022-08-22T21:48:43.533Z,100354.59
2022-08-22T21:51:29.719Z,100356.83
2022-08-22T21:54:27.804Z,100359.95
2022-08-22T21:56:58.381Z,100359.88
2022-08-22T21:59:50.714Z,100357.17
2022-08-22T22:02:42.376Z,100358.11
2022-08-22T22:05:18.045Z,100353.72
2022-08-22T22:07:49.739Z,100348.35
2022-08-22T22:10:23.287Z,100342.99
2022-08-22T22:12:58.730Z,100343.59
2022-08-22T22:15:33.505Z,100343.85
2022-08-22T22:18:06.077Z,100340.65
2022-08-22T22:20:34.661Z,100339.84
2022-08-22T22:23:03.630Z,100341.20
2022-08-22T22:25:39.801Z,100339.27
2022-08-22T22:28:14.034Z,100331.32
2022-08-22T22:30:43.743Z,100329.84
2022-08-22T22:33:13.148Z,100327.16
2022-08-22T22:35:41.988Z,100321.30
2022-08-22T22:38:11.084Z,100319.52
2022-08-22T22:40:40.866Z,100320.98
2022-08-22T22:43:11.303Z,100319.94
2022-08-22T22:45:41.593Z,100317.77
2022-08-22T22:48:10.132Z,100317.79
2022-08-22T22:50:41.488Z,100320.95
2022-08-22T22:53:11.449Z,100317.86
2022-08-22T22:56:00.077Z,100325.64
2022-08-22T22:58:29.955Z,100327.21
2022-08-22T23:00:59.154Z,100323.98
2022-08-22T23:03:28.474Z,100328.73
2022-08-22T23:05:57.703Z,100329.87
2022-08-22T23:08:26.501Z,100331.91
2022-08-22T23:10:56.034Z,100329.71
2022-08-22T23:13:24.812Z,100332.61
2022-08-22T23:15:53.596Z,100333.77
2022-08-22T23:18:30.476Z,100337.96
2022-08-22T23:21:10.669Z,100338.81
2022-08-22T23:23:39.258Z,100340.14
2022-08-22T23:26:08.209Z,100338.09
2022-08-22T23:28:37.198Z,100334.69
2022-08-22T23:31:17.278Z,100331.71
2022-08-22T23:33:47.114Z,100326.23
2022-08-22T23:36:19.975Z,100325.33
2022-08-22T23:38:50.751Z,100330.60
2022-08-22T23:41:23.691Z,100327.08
2022-08-22T23:43:56.247Z,100331.33
2022-08-22T23:46:28.002Z,100328.52
2022-08-22T23:49:05.987Z,100326.88
2022-08-22T23:51:37.705Z,100327.36
2022-08-22T23:54:09.956Z,100339.05
2022-08-22T23:56:42.374Z,100341.66
2022-08-22T23:59:13.911Z,100347.08
